sensor_id;sensor_type;location;lat;lon;timestamp;P1;durP1;ratioP1;P2;durP2;ratioP2
52816;SDS011;38687;43.330;21.924;2022-10-22T00:01:02;11.55;;;8.52;;
52816;SDS011;38687;43.330;21.924;2022-10-22T00:03:28;13.93;;;9.05;;
52816;SDS011;38687;43.330;21.924;2022-10-22T00:05:57;14.10;;;8.95;;
52816;SDS011;38687;43.330;21.924;2022-10-22T00:08:22;12.25;;;8.68;;
52816;SDS011;38687;43.330;21.924;2022-10-22T00:10:48;12.70;;;8.95;;
52816;SDS011;38687;43.330;21.924;2022-10-22T00:13:13;13.70;;;9.05;;
52816;SDS011;38687;43.330;21.924;2022-10-22T00:15:39;12.80;;;8.10;;
52816;SDS011;38687;43.330;21.924;2022-10-22T00:18:04;14.32;;;8.70;;
52816;SDS011;38687;43.330;21.924;2022-10-22T00:20:30;15.73;;;8.75;;
52816;SDS011;38687;43.330;21.924;2022-10-22T00:22:55;12.88;;;8.60;;
52816;SDS011;38687;43.330;21.924;2022-10-22T00:25:21;13.15;;;8.80;;
52816;SDS011;38687;43.330;21.924;2022-10-22T00:27:46;15.00;;;8.57;;
52816;SDS011;38687;43.330;21.924;2022-10-22T00:30:12;13.18;;;9.75;;
52816;SDS011;38687;43.330;21.924;2022-10-22T00:32:37;12.73;;;8.70;;
52816;SDS011;38687;43.330;21.924;2022-10-22T00:35:03;13.52;;;8.30;;
52816;SDS011;38687;43.330;21.924;2022-10-22T00:37:29;14.30;;;8.13;;
52816;SDS011;38687;43.330;21.924;2022-10-22T00:39:55;15.07;;;8.18;;
52816;SDS011;38687;43.330;21.924;2022-10-22T00:42:21;13.27;;;8.88;;
52816;SDS011;38687;43.330;21.924;2022-10-22T00:47:22;11.45;;;7.32;;
52816;SDS011;38687;43.330;21.924;2022-10-22T00:49:49;14.68;;;8.90;;
52816;SDS011;38687;43.330;21.924;2022-10-22T00:52:15;12.52;;;8.93;;
52816;SDS011;38687;43.330;21.924;2022-10-22T00:54:41;13.90;;;9.00;;
52816;SDS011;38687;43.330;21.924;2022-10-22T00:57:07;12.68;;;8.05;;
52816;SDS011;38687;43.330;21.924;2022-10-22T00:59:32;14.07;;;8.48;;
52816;SDS011;38687;43.330;21.924;2022-10-22T01:01:58;12.05;;;8.13;;
52816;SDS011;38687;43.330;21.924;2022-10-22T01:04:23;14.00;;;8.20;;
52816;SDS011;38687;43.330;21.924;2022-10-22T01:06:49;12.40;;;8.63;;
52816;SDS011;38687;43.330;21.924;2022-10-22T01:23:07;11.30;;;8.00;;
52816;SDS011;38687;43.330;21.924;2022-10-22T01:25:48;9.77;;;7.80;;
52816;SDS011;38687;43.330;21.924;2022-10-22T01:31:08;12.93;;;8.70;;
52816;SDS011;38687;43.330;21.924;2022-10-22T01:33:35;13.57;;;8.45;;
52816;SDS011;38687;43.330;21.924;2022-10-22T01:36:02;11.45;;;8.02;;
52816;SDS011;38687;43.330;21.924;2022-10-22T01:38:32;14.52;;;9.55;;
52816;SDS011;38687;43.330;21.924;2022-10-22T01:41:01;19.33;;;10.65;;
52816;SDS011;38687;43.330;21.924;2022-10-22T01:43:30;16.77;;;9.75;;
52816;SDS011;38687;43.330;21.924;2022-10-22T01:45:56;16.90;;;10.55;;
52816;SDS011;38687;43.330;21.924;2022-10-22T01:54:55;11.73;;;8.40;;
52816;SDS011;38687;43.330;21.924;2022-10-22T02:00:37;12.82;;;8.10;;
52816;SDS011;38687;43.330;21.924;2022-10-22T02:03:06;13.13;;;8.57;;
52816;SDS011;38687;43.330;21.924;2022-10-22T02:08:08;12.57;;;8.43;;
52816;SDS011;38687;43.330;21.924;2022-10-22T02:10:45;11.75;;;7.95;;
52816;SDS011;38687;43.330;21.924;2022-10-22T02:13:13;10.85;;;7.40;;
52816;SDS011;38687;43.330;21.924;2022-10-22T02:15:41;9.48;;;6.35;;
52816;SDS011;38687;43.330;21.924;2022-10-22T02:18:07;9.52;;;7.25;;
52816;SDS011;38687;43.330;21.924;2022-10-22T02:20:34;10.70;;;7.45;;
52816;SDS011;38687;43.330;21.924;2022-10-22T02:23:01;9.15;;;7.30;;
52816;SDS011;38687;43.330;21.924;2022-10-22T02:25:31;9.77;;;6.38;;
52816;SDS011;38687;43.330;21.924;2022-10-22T02:30:47;12.45;;;7.57;;
52816;SDS011;38687;43.330;21.924;2022-10-22T02:33:21;12.32;;;8.38;;
52816;SDS011;38687;43.330;21.924;2022-10-22T02:35:51;14.48;;;7.75;;
52816;SDS011;38687;43.330;21.924;2022-10-22T02:38:16;12.77;;;8.60;;
52816;SDS011;38687;43.330;21.924;2022-10-22T02:40:43;11.48;;;8.05;;
52816;SDS011;38687;43.330;21.924;2022-10-22T02:43:08;12.93;;;9.05;;
52816;SDS011;38687;43.330;21.924;2022-10-22T02:45:34;12.93;;;8.20;;
52816;SDS011;38687;43.330;21.924;2022-10-22T02:47:59;12.43;;;8.38;;
52816;SDS011;38687;43.330;21.924;2022-10-22T02:50:25;11.10;;;8.00;;
52816;SDS011;38687;43.330;21.924;2022-10-22T02:52:52;11.02;;;7.50;;
52816;SDS011;38687;43.330;21.924;2022-10-22T02:55:17;10.27;;;7.65;;
52816;SDS011;38687;43.330;21.924;2022-10-22T02:57:42;11.23;;;7.47;;
52816;SDS011;38687;43.330;21.924;2022-10-22T03:00:08;15.95;;;8.02;;
52816;SDS011;38687;43.330;21.924;2022-10-22T03:02:34;9.85;;;6.97;;
52816;SDS011;38687;43.330;21.924;2022-10-22T03:05:00;10.40;;;7.47;;
52816;SDS011;38687;43.330;21.924;2022-10-22T03:07:25;14.25;;;8.32;;
52816;SDS011;38687;43.330;21.924;2022-10-22T03:09:54;11.95;;;7.70;;
52816;SDS011;38687;43.330;21.924;2022-10-22T03:12:19;10.23;;;7.03;;
52816;SDS011;38687;43.330;21.924;2022-10-22T03:14:45;10.90;;;7.65;;
52816;SDS011;38687;43.330;21.924;2022-10-22T03:17:13;12.52;;;7.82;;
52816;SDS011;38687;43.330;21.924;2022-10-22T03:19:39;12.02;;;7.65;;
52816;SDS011;38687;43.330;21.924;2022-10-22T03:22:05;11.85;;;7.30;;
52816;SDS011;38687;43.330;21.924;2022-10-22T03:24:35;13.82;;;8.63;;
52816;SDS011;38687;43.330;21.924;2022-10-22T03:27:03;14.13;;;8.55;;
52816;SDS011;38687;43.330;21.924;2022-10-22T03:29:29;12.40;;;8.93;;
52816;SDS011;38687;43.330;21.924;2022-10-22T03:31:56;11.88;;;8.57;;
52816;SDS011;38687;43.330;21.924;2022-10-22T03:34:21;13.82;;;8.70;;
52816;SDS011;38687;43.330;21.924;2022-10-22T03:36:47;13.95;;;8.77;;
52816;SDS011;38687;43.330;21.924;2022-10-22T03:39:13;14.63;;;7.78;;
52816;SDS011;38687;43.330;21.924;2022-10-22T03:41:39;10.73;;;7.80;;
52816;SDS011;38687;43.330;21.924;2022-10-22T03:44:05;14.05;;;7.75;;
52816;SDS011;38687;43.330;21.924;2022-10-22T03:46:31;9.82;;;7.65;;
52816;SDS011;38687;43.330;21.924;2022-10-22T03:48:56;14.27;;;8.18;;
52816;SDS011;38687;43.330;21.924;2022-10-22T03:51:25;11.50;;;8.43;;
52816;SDS011;38687;43.330;21.924;2022-10-22T03:54:01;11.98;;;9.07;;
52816;SDS011;38687;43.330;21.924;2022-10-22T03:56:27;13.18;;;8.25;;
52816;SDS011;38687;43.330;21.924;2022-10-22T03:58:54;11.23;;;8.27;;
52816;SDS011;38687;43.330;21.924;2022-10-22T04:01:21;14.20;;;9.63;;
52816;SDS011;38687;43.330;21.924;2022-10-22T04:03:46;12.15;;;7.57;;
52816;SDS011;38687;43.330;21.924;2022-10-22T04:06:12;10.95;;;7.35;;
52816;SDS011;38687;43.330;21.924;2022-10-22T04:08:38;10.70;;;7.57;;
52816;SDS011;38687;43.330;21.924;2022-10-22T04:11:04;12.18;;;8.57;;
52816;SDS011;38687;43.330;21.924;2022-10-22T04:13:30;14.90;;;10.07;;
52816;SDS011;38687;43.330;21.924;2022-10-22T04:18:41;17.45;;;9.48;;
52816;SDS011;38687;43.330;21.924;2022-10-22T04:21:08;10.80;;;8.40;;
52816;SDS011;38687;43.330;21.924;2022-10-22T04:23:34;12.93;;;8.70;;
52816;SDS011;38687;43.330;21.924;2022-10-22T04:26:00;13.93;;;7.55;;
52816;SDS011;38687;43.330;21.924;2022-10-22T04:28:27;12.90;;;7.70;;
52816;SDS011;38687;43.330;21.924;2022-10-22T04:30:52;14.90;;;8.73;;
52816;SDS011;38687;43.330;21.924;2022-10-22T04:33:18;12.45;;;7.63;;
52816;SDS011;38687;43.330;21.924;2022-10-22T04:35:43;12.45;;;7.88;;
52816;SDS011;38687;43.330;21.924;2022-10-22T04:38:09;10.13;;;7.90;;
52816;SDS011;38687;43.330;21.924;2022-10-22T04:40:34;10.23;;;7.45;;
52816;SDS011;38687;43.330;21.924;2022-10-22T04:43:00;9.73;;;7.70;;
52816;SDS011;38687;43.330;21.924;2022-10-22T04:45:25;10.55;;;7.47;;
52816;SDS011;38687;43.330;21.924;2022-10-22T04:47:50;14.73;;;8.35;;
52816;SDS011;38687;43.330;21.924;2022-10-22T04:50:16;14.95;;;9.07;;
52816;SDS011;38687;43.330;21.924;2022-10-22T04:52:41;14.90;;;9.30;;
52816;SDS011;38687;43.330;21.924;2022-10-22T04:55:07;11.32;;;8.27;;
52816;SDS011;38687;43.330;21.924;2022-10-22T04:57:33;15.20;;;8.93;;
52816;SDS011;38687;43.330;21.924;2022-10-22T04:59:58;16.67;;;10.10;;
52816;SDS011;38687;43.330;21.924;2022-10-22T05:02:24;12.48;;;8.80;;
52816;SDS011;38687;43.330;21.924;2022-10-22T05:04:49;13.18;;;8.13;;
52816;SDS011;38687;43.330;21.924;2022-10-22T05:07:15;12.98;;;8.23;;
52816;SDS011;38687;43.330;21.924;2022-10-22T05:09:40;15.45;;;8.77;;
52816;SDS011;38687;43.330;21.924;2022-10-22T05:12:06;14.27;;;8.95;;
52816;SDS011;38687;43.330;21.924;2022-10-22T05:14:31;16.33;;;7.53;;
52816;SDS011;38687;43.330;21.924;2022-10-22T05:17:03;11.55;;;7.05;;
52816;SDS011;38687;43.330;21.924;2022-10-22T05:19:29;10.02;;;7.95;;
52816;SDS011;38687;43.330;21.924;2022-10-22T05:21:57;10.45;;;7.80;;
52816;SDS011;38687;43.330;21.924;2022-10-22T05:24:24;13.73;;;8.43;;
52816;SDS011;38687;43.330;21.924;2022-10-22T05:26:50;12.30;;;8.82;;
52816;SDS011;38687;43.330;21.924;2022-10-22T05:29:17;14.35;;;8.20;;
52816;SDS011;38687;43.330;21.924;2022-10-22T05:31:43;17.00;;;10.73;;
52816;SDS011;38687;43.330;21.924;2022-10-22T05:34:08;14.05;;;8.50;;
52816;SDS011;38687;43.330;21.924;2022-10-22T05:36:37;11.63;;;7.63;;
52816;SDS011;38687;43.330;21.924;2022-10-22T05:39:03;11.00;;;6.95;;
52816;SDS011;38687;43.330;21.924;2022-10-22T05:41:28;14.32;;;9.35;;
52816;SDS011;38687;43.330;21.924;2022-10-22T05:43:54;26.73;;;14.45;;
52816;SDS011;38687;43.330;21.924;2022-10-22T05:46:21;36.13;;;21.48;;
52816;SDS011;38687;43.330;21.924;2022-10-22T05:48:49;34.17;;;17.88;;
52816;SDS011;38687;43.330;21.924;2022-10-22T05:51:19;22.77;;;14.32;;
52816;SDS011;38687;43.330;21.924;2022-10-22T05:53:44;17.65;;;12.60;;
52816;SDS011;38687;43.330;21.924;2022-10-22T05:56:14;15.40;;;11.95;;
52816;SDS011;38687;43.330;21.924;2022-10-22T05:58:40;16.58;;;10.75;;
52816;SDS011;38687;43.330;21.924;2022-10-22T06:01:17;15.60;;;9.50;;
52816;SDS011;38687;43.330;21.924;2022-10-22T06:03:44;14.63;;;9.43;;
52816;SDS011;38687;43.330;21.924;2022-10-22T06:08:44;12.13;;;8.80;;
52816;SDS011;38687;43.330;21.924;2022-10-22T06:11:11;12.70;;;8.50;;
52816;SDS011;38687;43.330;21.924;2022-10-22T06:13:36;14.02;;;8.55;;
52816;SDS011;38687;43.330;21.924;2022-10-22T06:16:02;13.68;;;10.00;;
52816;SDS011;38687;43.330;21.924;2022-10-22T06:18:28;14.88;;;10.05;;
52816;SDS011;38687;43.330;21.924;2022-10-22T06:20:53;12.45;;;9.80;;
52816;SDS011;38687;43.330;21.924;2022-10-22T06:23:19;16.92;;;11.40;;
52816;SDS011;38687;43.330;21.924;2022-10-22T06:25:54;17.05;;;11.23;;
52816;SDS011;38687;43.330;21.924;2022-10-22T06:28:20;17.60;;;11.52;;
52816;SDS011;38687;43.330;21.924;2022-10-22T06:30:45;18.58;;;12.93;;
52816;SDS011;38687;43.330;21.924;2022-10-22T06:33:11;17.20;;;10.30;;
52816;SDS011;38687;43.330;21.924;2022-10-22T06:35:36;14.32;;;9.45;;
52816;SDS011;38687;43.330;21.924;2022-10-22T06:38:01;14.40;;;9.82;;
52816;SDS011;38687;43.330;21.924;2022-10-22T06:40:27;16.60;;;11.15;;
52816;SDS011;38687;43.330;21.924;2022-10-22T06:42:52;17.55;;;10.90;;
52816;SDS011;38687;43.330;21.924;2022-10-22T06:45:18;22.33;;;12.57;;
52816;SDS011;38687;43.330;21.924;2022-10-22T06:47:43;20.55;;;13.75;;
52816;SDS011;38687;43.330;21.924;2022-10-22T06:50:09;20.88;;;12.40;;
52816;SDS011;38687;43.330;21.924;2022-10-22T06:52:34;17.77;;;11.10;;
52816;SDS011;38687;43.330;21.924;2022-10-22T06:55:00;17.65;;;11.38;;
52816;SDS011;38687;43.330;21.924;2022-10-22T06:57:25;17.00;;;10.45;;
52816;SDS011;38687;43.330;21.924;2022-10-22T06:59:50;23.65;;;13.15;;
52816;SDS011;38687;43.330;21.924;2022-10-22T07:02:16;19.30;;;11.30;;
52816;SDS011;38687;43.330;21.924;2022-10-22T07:04:41;16.60;;;10.38;;
52816;SDS011;38687;43.330;21.924;2022-10-22T07:07:07;20.45;;;12.95;;
52816;SDS011;38687;43.330;21.924;2022-10-22T07:09:32;18.55;;;10.98;;
52816;SDS011;38687;43.330;21.924;2022-10-22T07:11:57;25.33;;;14.27;;
52816;SDS011;38687;43.330;21.924;2022-10-22T07:14:23;16.50;;;11.40;;
52816;SDS011;38687;43.330;21.924;2022-10-22T07:16:51;14.98;;;9.63;;
52816;SDS011;38687;43.330;21.924;2022-10-22T07:19:17;12.05;;;8.05;;
52816;SDS011;38687;43.330;21.924;2022-10-22T07:21:42;11.30;;;7.78;;
52816;SDS011;38687;43.330;21.924;2022-10-22T07:24:08;11.93;;;8.23;;
52816;SDS011;38687;43.330;21.924;2022-10-22T07:26:33;12.48;;;8.07;;
52816;SDS011;38687;43.330;21.924;2022-10-22T07:28:59;10.30;;;7.68;;
52816;SDS011;38687;43.330;21.924;2022-10-22T07:31:25;11.40;;;7.70;;
52816;SDS011;38687;43.330;21.924;2022-10-22T07:33:51;11.23;;;7.93;;
52816;SDS011;38687;43.330;21.924;2022-10-22T07:36:16;11.63;;;7.35;;
52816;SDS011;38687;43.330;21.924;2022-10-22T07:38:42;12.32;;;7.45;;
52816;SDS011;38687;43.330;21.924;2022-10-22T07:41:12;9.23;;;7.10;;
52816;SDS011;38687;43.330;21.924;2022-10-22T07:43:38;10.43;;;7.63;;
52816;SDS011;38687;43.330;21.924;2022-10-22T07:46:04;10.90;;;7.90;;
52816;SDS011;38687;43.330;21.924;2022-10-22T07:48:30;12.02;;;7.93;;
52816;SDS011;38687;43.330;21.924;2022-10-22T07:50:56;11.52;;;6.72;;
52816;SDS011;38687;43.330;21.924;2022-10-22T07:53:22;7.80;;;6.90;;
52816;SDS011;38687;43.330;21.924;2022-10-22T07:55:48;11.50;;;7.10;;
52816;SDS011;38687;43.330;21.924;2022-10-22T07:58:14;13.27;;;7.43;;
52816;SDS011;38687;43.330;21.924;2022-10-22T08:00:40;9.98;;;7.53;;
52816;SDS011;38687;43.330;21.924;2022-10-22T08:03:05;10.13;;;7.15;;
52816;SDS011;38687;43.330;21.924;2022-10-22T08:05:32;9.77;;;6.47;;
52816;SDS011;38687;43.330;21.924;2022-10-22T08:07:57;13.98;;;7.82;;
52816;SDS011;38687;43.330;21.924;2022-10-22T08:10:23;11.60;;;7.05;;
52816;SDS011;38687;43.330;21.924;2022-10-22T08:12:48;11.73;;;8.73;;
52816;SDS011;38687;43.330;21.924;2022-10-22T08:15:14;10.07;;;7.18;;
52816;SDS011;38687;43.330;21.924;2022-10-22T08:17:39;9.95;;;7.78;;
52816;SDS011;38687;43.330;21.924;2022-10-22T08:20:05;10.73;;;7.82;;
52816;SDS011;38687;43.330;21.924;2022-10-22T08:22:31;10.75;;;7.80;;
52816;SDS011;38687;43.330;21.924;2022-10-22T08:24:56;8.85;;;7.05;;
52816;SDS011;38687;43.330;21.924;2022-10-22T08:27:21;9.02;;;6.82;;
52816;SDS011;38687;43.330;21.924;2022-10-22T08:29:47;10.18;;;8.07;;
52816;SDS011;38687;43.330;21.924;2022-10-22T08:32:12;13.52;;;6.75;;
52816;SDS011;38687;43.330;21.924;2022-10-22T08:34:38;10.07;;;7.10;;
52816;SDS011;38687;43.330;21.924;2022-10-22T08:37:04;10.45;;;6.65;;
52816;SDS011;38687;43.330;21.924;2022-10-22T08:39:32;9.05;;;7.00;;
52816;SDS011;38687;43.330;21.924;2022-10-22T08:42:06;7.93;;;6.25;;
52816;SDS011;38687;43.330;21.924;2022-10-22T08:49:54;10.52;;;6.53;;
52816;SDS011;38687;43.330;21.924;2022-10-22T08:52:21;11.95;;;6.72;;
52816;SDS011;38687;43.330;21.924;2022-10-22T09:03:09;9.15;;;5.90;;
52816;SDS011;38687;43.330;21.924;2022-10-22T09:08:20;7.57;;;5.68;;
52816;SDS011;38687;43.330;21.924;2022-10-22T09:10:47;6.60;;;5.90;;
52816;SDS011;38687;43.330;21.924;2022-10-22T09:13:15;6.38;;;5.70;;
52816;SDS011;38687;43.330;21.924;2022-10-22T09:15:43;5.78;;;5.20;;
52816;SDS011;38687;43.330;21.924;2022-10-22T09:18:15;7.75;;;5.53;;
52816;SDS011;38687;43.330;21.924;2022-10-22T09:20:48;7.65;;;5.45;;
52816;SDS011;38687;43.330;21.924;2022-10-22T09:23:32;5.43;;;4.60;;
52816;SDS011;38687;43.330;21.924;2022-10-22T09:26:01;5.40;;;4.53;;
52816;SDS011;38687;43.330;21.924;2022-10-22T09:28:27;6.38;;;5.05;;
52816;SDS011;38687;43.330;21.924;2022-10-22T09:30:52;6.38;;;5.22;;
52816;SDS011;38687;43.330;21.924;2022-10-22T09:33:21;5.07;;;4.55;;
52816;SDS011;38687;43.330;21.924;2022-10-22T09:35:52;9.57;;;4.88;;
52816;SDS011;38687;43.330;21.924;2022-10-22T09:38:49;10.40;;;6.60;;
52816;SDS011;38687;43.330;21.924;2022-10-22T09:41:15;7.82;;;5.30;;
52816;SDS011;38687;43.330;21.924;2022-10-22T09:43:40;7.55;;;4.68;;
52816;SDS011;38687;43.330;21.924;2022-10-22T09:46:07;7.63;;;5.13;;
52816;SDS011;38687;43.330;21.924;2022-10-22T09:48:58;6.93;;;5.32;;
52816;SDS011;38687;43.330;21.924;2022-10-22T09:51:39;5.70;;;5.07;;
52816;SDS011;38687;43.330;21.924;2022-10-22T09:54:14;4.32;;;3.95;;
52816;SDS011;38687;43.330;21.924;2022-10-22T09:56:41;8.70;;;5.57;;
52816;SDS011;38687;43.330;21.924;2022-10-22T09:59:17;7.97;;;5.25;;
52816;SDS011;38687;43.330;21.924;2022-10-22T10:01:44;7.47;;;5.70;;
52816;SDS011;38687;43.330;21.924;2022-10-22T10:04:11;8.88;;;5.45;;
52816;SDS011;38687;43.330;21.924;2022-10-22T10:06:40;6.18;;;4.75;;
52816;SDS011;38687;43.330;21.924;2022-10-22T10:09:15;6.55;;;4.88;;
52816;SDS011;38687;43.330;21.924;2022-10-22T10:11:51;6.35;;;4.93;;
52816;SDS011;38687;43.330;21.924;2022-10-22T10:23:03;6.90;;;4.60;;
52816;SDS011;38687;43.330;21.924;2022-10-22T10:25:54;5.70;;;5.10;;
52816;SDS011;38687;43.330;21.924;2022-10-22T10:39:21;6.57;;;5.18;;
52816;SDS011;38687;43.330;21.924;2022-10-22T10:44:37;6.07;;;4.53;;
52816;SDS011;38687;43.330;21.924;2022-10-22T10:49:47;4.63;;;4.18;;
52816;SDS011;38687;43.330;21.924;2022-10-22T10:52:19;6.30;;;4.43;;
52816;SDS011;38687;43.330;21.924;2022-10-22T11:00:15;3.45;;;3.15;;
52816;SDS011;38687;43.330;21.924;2022-10-22T11:05:53;4.75;;;3.88;;
52816;SDS011;38687;43.330;21.924;2022-10-22T11:08:36;5.57;;;2.80;;
52816;SDS011;38687;43.330;21.924;2022-10-22T11:11:20;4.82;;;3.40;;
52816;SDS011;38687;43.330;21.924;2022-10-22T11:14:16;5.47;;;4.53;;
52816;SDS011;38687;43.330;21.924;2022-10-22T11:16:45;7.28;;;3.72;;
52816;SDS011;38687;43.330;21.924;2022-10-22T11:19:27;6.28;;;3.35;;
52816;SDS011;38687;43.330;21.924;2022-10-22T11:27:41;7.18;;;5.38;;
52816;SDS011;38687;43.330;21.924;2022-10-22T11:30:13;6.25;;;4.40;;
52816;SDS011;38687;43.330;21.924;2022-10-22T11:32:40;5.45;;;3.50;;
52816;SDS011;38687;43.330;21.924;2022-10-22T11:35:08;6.25;;;4.15;;
52816;SDS011;38687;43.330;21.924;2022-10-22T11:37:37;5.40;;;4.13;;
52816;SDS011;38687;43.330;21.924;2022-10-22T11:40:14;6.13;;;3.75;;
52816;SDS011;38687;43.330;21.924;2022-10-22T11:42:51;6.70;;;3.75;;
52816;SDS011;38687;43.330;21.924;2022-10-22T11:47:57;4.35;;;3.22;;
52816;SDS011;38687;43.330;21.924;2022-10-22T12:16:21;7.53;;;5.30;;
52816;SDS011;38687;43.330;21.924;2022-10-22T12:18:48;6.07;;;4.70;;
52816;SDS011;38687;43.330;21.924;2022-10-22T12:21:21;8.00;;;4.43;;
52816;SDS011;38687;43.330;21.924;2022-10-22T12:23:46;8.90;;;4.70;;
52816;SDS011;38687;43.330;21.924;2022-10-22T12:26:23;5.90;;;4.28;;
52816;SDS011;38687;43.330;21.924;2022-10-22T12:28:55;8.95;;;4.25;;
52816;SDS011;38687;43.330;21.924;2022-10-22T12:31:24;10.30;;;5.55;;
52816;SDS011;38687;43.330;21.924;2022-10-22T12:33:57;10.13;;;4.50;;
52816;SDS011;38687;43.330;21.924;2022-10-22T12:36:27;9.77;;;4.68;;
52816;SDS011;38687;43.330;21.924;2022-10-22T12:38:54;7.00;;;4.90;;
52816;SDS011;38687;43.330;21.924;2022-10-22T12:41:29;4.85;;;3.40;;
52816;SDS011;38687;43.330;21.924;2022-10-22T12:43:59;5.40;;;4.10;;
52816;SDS011;38687;43.330;21.924;2022-10-22T12:46:26;8.02;;;3.75;;
52816;SDS011;38687;43.330;21.924;2022-10-22T12:48:51;9.35;;;4.47;;
52816;SDS011;38687;43.330;21.924;2022-10-22T12:51:17;6.25;;;3.72;;
52816;SDS011;38687;43.330;21.924;2022-10-22T12:53:44;6.63;;;4.43;;
52816;SDS011;38687;43.330;21.924;2022-10-22T12:56:12;8.38;;;3.92;;
52816;SDS011;38687;43.330;21.924;2022-10-22T12:58:49;8.00;;;4.53;;
52816;SDS011;38687;43.330;21.924;2022-10-22T13:01:17;9.23;;;4.40;;
52816;SDS011;38687;43.330;21.924;2022-10-22T13:03:44;5.72;;;3.88;;
52816;SDS011;38687;43.330;21.924;2022-10-22T13:06:32;5.90;;;3.95;;
52816;SDS011;38687;43.330;21.924;2022-10-22T13:11:29;7.05;;;3.75;;
52816;SDS011;38687;43.330;21.924;2022-10-22T13:14:14;8.00;;;4.07;;
52816;SDS011;38687;43.330;21.924;2022-10-22T13:17:01;7.28;;;4.60;;
52816;SDS011;38687;43.330;21.924;2022-10-22T13:19:47;8.95;;;6.20;;
52816;SDS011;38687;43.330;21.924;2022-10-22T13:22:26;7.90;;;6.70;;
52816;SDS011;38687;43.330;21.924;2022-10-22T13:24:55;7.97;;;4.97;;
52816;SDS011;38687;43.330;21.924;2022-10-22T13:27:29;7.03;;;5.45;;
52816;SDS011;38687;43.330;21.924;2022-10-22T13:29:55;9.63;;;7.10;;
52816;SDS011;38687;43.330;21.924;2022-10-22T13:32:33;8.93;;;5.53;;
52816;SDS011;38687;43.330;21.924;2022-10-22T13:34:59;8.35;;;5.50;;
52816;SDS011;38687;43.330;21.924;2022-10-22T13:37:26;9.32;;;6.10;;
52816;SDS011;38687;43.330;21.924;2022-10-22T13:39:52;7.60;;;5.15;;
52816;SDS011;38687;43.330;21.924;2022-10-22T13:42:17;10.65;;;6.85;;
52816;SDS011;38687;43.330;21.924;2022-10-22T13:44:43;11.48;;;7.05;;
52816;SDS011;38687;43.330;21.924;2022-10-22T13:47:16;10.48;;;6.65;;
52816;SDS011;38687;43.330;21.924;2022-10-22T13:49:45;9.57;;;5.90;;
52816;SDS011;38687;43.330;21.924;2022-10-22T13:52:11;12.70;;;7.85;;
52816;SDS011;38687;43.330;21.924;2022-10-22T13:54:42;8.68;;;6.38;;
52816;SDS011;38687;43.330;21.924;2022-10-22T13:57:08;15.88;;;9.60;;
52816;SDS011;38687;43.330;21.924;2022-10-22T13:59:40;15.32;;;9.15;;
52816;SDS011;38687;43.330;21.924;2022-10-22T14:02:15;16.05;;;8.70;;
52816;SDS011;38687;43.330;21.924;2022-10-22T14:04:41;11.23;;;7.30;;
52816;SDS011;38687;43.330;21.924;2022-10-22T14:07:15;9.70;;;7.13;;
52816;SDS011;38687;43.330;21.924;2022-10-22T14:09:42;9.73;;;7.43;;
52816;SDS011;38687;43.330;21.924;2022-10-22T14:12:11;13.85;;;6.93;;
52816;SDS011;38687;43.330;21.924;2022-10-22T14:14:39;10.45;;;7.38;;
52816;SDS011;38687;43.330;21.924;2022-10-22T14:17:04;12.05;;;6.32;;
52816;SDS011;38687;43.330;21.924;2022-10-22T14:19:30;15.45;;;8.13;;
52816;SDS011;38687;43.330;21.924;2022-10-22T14:21:59;9.02;;;7.35;;
52816;SDS011;38687;43.330;21.924;2022-10-22T14:24:24;10.77;;;7.13;;
52816;SDS011;38687;43.330;21.924;2022-10-22T14:26:50;8.30;;;6.35;;
52816;SDS011;38687;43.330;21.924;2022-10-22T14:29:15;8.30;;;6.00;;
52816;SDS011;38687;43.330;21.924;2022-10-22T14:31:41;7.03;;;5.50;;
52816;SDS011;38687;43.330;21.924;2022-10-22T14:34:09;10.25;;;5.93;;
52816;SDS011;38687;43.330;21.924;2022-10-22T14:36:35;8.20;;;6.93;;
52816;SDS011;38687;43.330;21.924;2022-10-22T14:39:00;12.27;;;8.57;;
52816;SDS011;38687;43.330;21.924;2022-10-22T14:41:26;9.15;;;5.90;;
52816;SDS011;38687;43.330;21.924;2022-10-22T14:43:52;7.70;;;4.80;;
52816;SDS011;38687;43.330;21.924;2022-10-22T14:46:19;11.20;;;5.30;;
52816;SDS011;38687;43.330;21.924;2022-10-22T14:48:45;12.38;;;7.45;;
52816;SDS011;38687;43.330;21.924;2022-10-22T14:51:17;11.20;;;9.20;;
52816;SDS011;38687;43.330;21.924;2022-10-22T14:53:44;12.50;;;8.45;;
52816;SDS011;38687;43.330;21.924;2022-10-22T14:56:14;13.25;;;8.48;;
52816;SDS011;38687;43.330;21.924;2022-10-22T14:58:41;14.35;;;7.80;;
52816;SDS011;38687;43.330;21.924;2022-10-22T15:01:07;32.15;;;18.58;;
52816;SDS011;38687;43.330;21.924;2022-10-22T15:03:32;28.83;;;16.90;;
52816;SDS011;38687;43.330;21.924;2022-10-22T15:05:58;76.45;;;42.55;;
52816;SDS011;38687;43.330;21.924;2022-10-22T15:08:24;57.55;;;32.10;;
52816;SDS011;38687;43.330;21.924;2022-10-22T15:11:04;47.97;;;28.50;;
52816;SDS011;38687;43.330;21.924;2022-10-22T15:13:31;49.60;;;30.60;;
52816;SDS011;38687;43.330;21.924;2022-10-22T15:15:57;54.72;;;31.75;;
52816;SDS011;38687;43.330;21.924;2022-10-22T15:18:23;34.97;;;22.00;;
52816;SDS011;38687;43.330;21.924;2022-10-22T15:23:22;34.25;;;21.17;;
52816;SDS011;38687;43.330;21.924;2022-10-22T15:25:47;46.45;;;27.23;;
52816;SDS011;38687;43.330;21.924;2022-10-22T15:28:13;48.33;;;27.52;;
52816;SDS011;38687;43.330;21.924;2022-10-22T15:30:38;49.13;;;32.67;;
52816;SDS011;38687;43.330;21.924;2022-10-22T15:33:04;23.40;;;16.90;;
52816;SDS011;38687;43.330;21.924;2022-10-22T15:35:29;22.65;;;14.18;;
52816;SDS011;38687;43.330;21.924;2022-10-22T15:37:58;30.58;;;20.13;;
52816;SDS011;38687;43.330;21.924;2022-10-22T15:40:23;27.40;;;19.23;;
52816;SDS011;38687;43.330;21.924;2022-10-22T15:42:49;28.92;;;20.25;;
52816;SDS011;38687;43.330;21.924;2022-10-22T15:45:14;37.08;;;20.42;;
52816;SDS011;38687;43.330;21.924;2022-10-22T15:47:43;45.28;;;29.10;;
52816;SDS011;38687;43.330;21.924;2022-10-22T15:50:09;38.88;;;24.95;;
52816;SDS011;38687;43.330;21.924;2022-10-22T15:52:34;36.47;;;24.20;;
52816;SDS011;38687;43.330;21.924;2022-10-22T15:55:00;45.45;;;25.88;;
52816;SDS011;38687;43.330;21.924;2022-10-22T15:57:30;43.42;;;25.45;;
52816;SDS011;38687;43.330;21.924;2022-10-22T15:59:56;46.80;;;30.25;;
52816;SDS011;38687;43.330;21.924;2022-10-22T16:02:21;39.72;;;24.98;;
52816;SDS011;38687;43.330;21.924;2022-10-22T16:04:47;44.55;;;27.25;;
52816;SDS011;38687;43.330;21.924;2022-10-22T16:07:12;73.30;;;38.63;;
52816;SDS011;38687;43.330;21.924;2022-10-22T16:09:38;51.13;;;29.85;;
52816;SDS011;38687;43.330;21.924;2022-10-22T16:12:03;64.00;;;36.00;;
52816;SDS011;38687;43.330;21.924;2022-10-22T16:14:29;60.63;;;35.47;;
52816;SDS011;38687;43.330;21.924;2022-10-22T16:16:54;60.58;;;34.30;;
52816;SDS011;38687;43.330;21.924;2022-10-22T16:19:20;53.83;;;34.13;;
52816;SDS011;38687;43.330;21.924;2022-10-22T16:21:51;60.03;;;33.85;;
52816;SDS011;38687;43.330;21.924;2022-10-22T16:24:17;65.57;;;41.13;;
52816;SDS011;38687;43.330;21.924;2022-10-22T16:26:44;62.47;;;34.97;;
52816;SDS011;38687;43.330;21.924;2022-10-22T16:29:10;88.90;;;49.92;;
52816;SDS011;38687;43.330;21.924;2022-10-22T16:31:36;83.22;;;47.85;;
52816;SDS011;38687;43.330;21.924;2022-10-22T16:34:03;85.25;;;52.30;;
52816;SDS011;38687;43.330;21.924;2022-10-22T16:36:28;107.35;;;64.22;;